sensor_id;sensor_type;location;lat;lon;timestamp;temperature;humidity
11093;DHT22;5600;50.864;6.102;2022-10-16T00:01:09;13.30;99.90
11093;DHT22;5600;50.864;6.102;2022-10-16T00:04:11;13.30;99.90
11093;DHT22;5600;50.864;6.102;2022-10-16T00:07:12;13.20;99.90
11093;DHT22;5600;50.864;6.102;2022-10-16T00:10:13;13.10;99.90
11093;DHT22;5600;50.864;6.102;2022-10-16T00:13:13;13.10;99.90
11093;DHT22;5600;50.864;6.102;2022-10-16T00:16:15;13.00;99.90
11093;DHT22;5600;50.864;6.102;2022-10-16T00:19:16;12.90;99.90
11093;DHT22;5600;50.864;6.102;2022-10-16T00:22:17;12.90;99.90
11093;DHT22;5600;50.864;6.102;2022-10-16T00:25:18;12.80;99.90
11093;DHT22;5600;50.864;6.102;2022-10-16T00:28:18;12.70;99.90
11093;DHT22;5600;50.864;6.102;2022-10-16T00:31:21;12.70;99.90
11093;DHT22;5600;50.864;6.102;2022-10-16T00:34:22;12.60;99.90
11093;DHT22;5600;50.864;6.102;2022-10-16T00:37:23;12.60;99.90
11093;DHT22;5600;50.864;6.102;2022-10-16T00:40:23;12.50;99.90
11093;DHT22;5600;50.864;6.102;2022-10-16T00:43:48;12.40;99.90
11093;DHT22;5600;50.864;6.102;2022-10-16T00:46:50;12.40;99.90
11093;DHT22;5600;50.864;6.102;2022-10-16T00:49:56;12.30;99.90
11093;DHT22;5600;50.864;6.102;2022-10-16T00:52:58;12.30;99.90
11093;DHT22;5600;50.864;6.102;2022-10-16T00:56:01;12.30;99.90
11093;DHT22;5600;50.864;6.102;2022-10-16T00:59:05;12.20;99.90
11093;DHT22;5600;50.864;6.102;2022-10-16T01:02:09;12.20;99.90
11093;DHT22;5600;50.864;6.102;2022-10-16T01:05:10;12.10;99.90
11093;DHT22;5600;50.864;6.102;2022-10-16T01:08:18;12.10;99.90
11093;DHT22;5600;50.864;6.102;2022-10-16T01:14:53;12.10;99.90
11093;DHT22;5600;50.864;6.102;2022-10-16T01:18:28;12.10;99.90
11093;DHT22;5600;50.864;6.102;2022-10-16T01:21:42;12.20;99.90
11093;DHT22;5600;50.864;6.102;2022-10-16T01:24:48;12.20;99.90
11093;DHT22;5600;50.864;6.102;2022-10-16T01:27:50;12.10;99.90
11093;DHT22;5600;50.864;6.102;2022-10-16T01:30:53;12.20;99.90
11093;DHT22;5600;50.864;6.102;2022-10-16T01:34:19;12.10;99.90
11093;DHT22;5600;50.864;6.102;2022-10-16T01:37:30;12.10;99.90
11093;DHT22;5600;50.864;6.102;2022-10-16T01:40:34;12.20;99.90
11093;DHT22;5600;50.864;6.102;2022-10-16T01:43:40;12.20;99.90
11093;DHT22;5600;50.864;6.102;2022-10-16T01:46:43;12.20;99.90
11093;DHT22;5600;50.864;6.102;2022-10-16T01:49:46;12.20;99.90
11093;DHT22;5600;50.864;6.102;2022-10-16T01:52:49;12.30;99.90
11093;DHT22;5600;50.864;6.102;2022-10-16T01:55:52;12.30;99.90
11093;DHT22;5600;50.864;6.102;2022-10-16T01:59:01;12.30;99.90
11093;DHT22;5600;50.864;6.102;2022-10-16T02:02:08;12.40;99.90
11093;DHT22;5600;50.864;6.102;2022-10-16T02:05:19;12.50;99.90
11093;DHT22;5600;50.864;6.102;2022-10-16T02:08:22;12.50;99.90
11093;DHT22;5600;50.864;6.102;2022-10-16T02:11:24;12.60;99.90
11093;DHT22;5600;50.864;6.102;2022-10-16T02:14:25;12.70;99.90
11093;DHT22;5600;50.864;6.102;2022-10-16T02:17:26;12.80;99.90
11093;DHT22;5600;50.864;6.102;2022-10-16T02:20:31;12.90;99.90
11093;DHT22;5600;50.864;6.102;2022-10-16T02:27:21;12.90;99.90
11093;DHT22;5600;50.864;6.102;2022-10-16T02:33:27;13.00;99.90
11093;DHT22;5600;50.864;6.102;2022-10-16T02:36:29;13.10;99.90
11093;DHT22;5600;50.864;6.102;2022-10-16T02:39:30;13.10;99.90
11093;DHT22;5600;50.864;6.102;2022-10-16T02:42:36;13.10;99.90
11093;DHT22;5600;50.864;6.102;2022-10-16T02:45:37;13.10;99.90
11093;DHT22;5600;50.864;6.102;2022-10-16T02:48:37;13.10;99.90
11093;DHT22;5600;50.864;6.102;2022-10-16T02:51:39;13.20;99.90
11093;DHT22;5600;50.864;6.102;2022-10-16T02:54:40;13.30;99.90
11093;DHT22;5600;50.864;6.102;2022-10-16T02:57:40;13.40;99.90
11093;DHT22;5600;50.864;6.102;2022-10-16T03:00:41;13.30;99.90
11093;DHT22;5600;50.864;6.102;2022-10-16T03:03:42;13.30;99.90
11093;DHT22;5600;50.864;6.102;2022-10-16T03:06:43;13.20;99.90
11093;DHT22;5600;50.864;6.102;2022-10-16T03:09:44;13.20;99.90
11093;DHT22;5600;50.864;6.102;2022-10-16T03:12:44;13.20;99.90
11093;DHT22;5600;50.864;6.102;2022-10-16T03:15:45;13.20;99.90
11093;DHT22;5600;50.864;6.102;2022-10-16T03:18:49;13.20;99.90
11093;DHT22;5600;50.864;6.102;2022-10-16T03:21:50;13.20;99.90
11093;DHT22;5600;50.864;6.102;2022-10-16T03:24:50;13.30;99.90
11093;DHT22;5600;50.864;6.102;2022-10-16T03:27:52;13.30;99.90
11093;DHT22;5600;50.864;6.102;2022-10-16T03:30:52;13.20;99.90
11093;DHT22;5600;50.864;6.102;2022-10-16T03:33:53;13.20;99.90
11093;DHT22;5600;50.864;6.102;2022-10-16T03:36:53;13.10;99.90
11093;DHT22;5600;50.864;6.102;2022-10-16T03:39:54;13.00;99.90
11093;DHT22;5600;50.864;6.102;2022-10-16T03:42:55;13.00;99.90
11093;DHT22;5600;50.864;6.102;2022-10-16T03:45:57;13.00;99.90
11093;DHT22;5600;50.864;6.102;2022-10-16T03:48:58;13.10;99.90
11093;DHT22;5600;50.864;6.102;2022-10-16T03:51:58;13.00;99.90
11093;DHT22;5600;50.864;6.102;2022-10-16T03:54:59;13.00;99.90
11093;DHT22;5600;50.864;6.102;2022-10-16T03:58:00;13.00;99.90
11093;DHT22;5600;50.864;6.102;2022-10-16T04:01:00;13.00;99.90
11093;DHT22;5600;50.864;6.102;2022-10-16T04:04:01;13.00;99.90
11093;DHT22;5600;50.864;6.102;2022-10-16T04:07:02;13.00;99.90
11093;DHT22;5600;50.864;6.102;2022-10-16T04:10:03;13.00;99.90
11093;DHT22;5600;50.864;6.102;2022-10-16T04:13:04;12.90;99.90
11093;DHT22;5600;50.864;6.102;2022-10-16T04:16:05;12.90;99.90
11093;DHT22;5600;50.864;6.102;2022-10-16T04:19:06;12.90;99.90
11093;DHT22;5600;50.864;6.102;2022-10-16T04:22:06;12.90;99.90
11093;DHT22;5600;50.864;6.102;2022-10-16T04:25:07;12.90;99.90
11093;DHT22;5600;50.864;6.102;2022-10-16T04:28:08;12.80;99.90
11093;DHT22;5600;50.864;6.102;2022-10-16T04:31:09;12.80;99.90
11093;DHT22;5600;50.864;6.102;2022-10-16T04:34:09;12.80;99.90
11093;DHT22;5600;50.864;6.102;2022-10-16T04:37:10;12.70;99.90
11093;DHT22;5600;50.864;6.102;2022-10-16T04:40:11;12.70;99.90
11093;DHT22;5600;50.864;6.102;2022-10-16T04:43:12;12.70;99.90
11093;DHT22;5600;50.864;6.102;2022-10-16T04:46:12;12.70;99.90
11093;DHT22;5600;50.864;6.102;2022-10-16T04:49:13;12.60;99.90
11093;DHT22;5600;50.864;6.102;2022-10-16T04:52:14;12.50;99.90
11093;DHT22;5600;50.864;6.102;2022-10-16T04:55:15;12.40;99.90
11093;DHT22;5600;50.864;6.102;2022-10-16T04:58:16;12.30;99.90
11093;DHT22;5600;50.864;6.102;2022-10-16T05:01:16;12.20;99.90
11093;DHT22;5600;50.864;6.102;2022-10-16T05:04:17;12.10;99.90
11093;DHT22;5600;50.864;6.102;2022-10-16T05:07:18;12.00;99.90
11093;DHT22;5600;50.864;6.102;2022-10-16T05:10:19;12.00;99.90
11093;DHT22;5600;50.864;6.102;2022-10-16T05:13:19;11.90;99.90
11093;DHT22;5600;50.864;6.102;2022-10-16T05:16:20;11.80;99.90
11093;DHT22;5600;50.864;6.102;2022-10-16T05:19:21;11.70;99.90
11093;DHT22;5600;50.864;6.102;2022-10-16T05:22:21;11.70;99.90
11093;DHT22;5600;50.864;6.102;2022-10-16T05:25:22;11.70;99.90
11093;DHT22;5600;50.864;6.102;2022-10-16T05:28:23;11.70;99.90
11093;DHT22;5600;50.864;6.102;2022-10-16T05:31:24;11.60;99.90
11093;DHT22;5600;50.864;6.102;2022-10-16T05:34:24;11.60;99.90
11093;DHT22;5600;50.864;6.102;2022-10-16T05:37:27;11.50;99.90
11093;DHT22;5600;50.864;6.102;2022-10-16T05:40:27;11.50;99.90
11093;DHT22;5600;50.864;6.102;2022-10-16T05:43:29;11.50;99.90
11093;DHT22;5600;50.864;6.102;2022-10-16T05:46:30;11.40;99.90
11093;DHT22;5600;50.864;6.102;2022-10-16T05:49:30;11.40;99.90
11093;DHT22;5600;50.864;6.102;2022-10-16T05:52:31;11.40;99.90
11093;DHT22;5600;50.864;6.102;2022-10-16T05:55:32;11.40;99.90
11093;DHT22;5600;50.864;6.102;2022-10-16T05:58:34;11.10;99.90
11093;DHT22;5600;50.864;6.102;2022-10-16T06:01:36;11.50;99.90
11093;DHT22;5600;50.864;6.102;2022-10-16T06:04:36;11.50;99.90
11093;DHT22;5600;50.864;6.102;2022-10-16T06:07:37;11.70;99.90
11093;DHT22;5600;50.864;6.102;2022-10-16T06:10:38;11.90;99.90
11093;DHT22;5600;50.864;6.102;2022-10-16T06:13:39;12.00;99.90
11093;DHT22;5600;50.864;6.102;2022-10-16T06:16:42;12.10;99.90
11093;DHT22;5600;50.864;6.102;2022-10-16T06:19:43;12.30;99.90
11093;DHT22;5600;50.864;6.102;2022-10-16T06:22:43;12.40;99.90
11093;DHT22;5600;50.864;6.102;2022-10-16T06:25:44;12.50;99.90
11093;DHT22;5600;50.864;6.102;2022-10-16T06:28:45;12.60;99.90
11093;DHT22;5600;50.864;6.102;2022-10-16T06:31:46;12.70;99.90
11093;DHT22;5600;50.864;6.102;2022-10-16T06:34:47;12.80;99.90
11093;DHT22;5600;50.864;6.102;2022-10-16T06:37:48;12.90;99.90
11093;DHT22;5600;50.864;6.102;2022-10-16T06:40:48;13.00;99.90
11093;DHT22;5600;50.864;6.102;2022-10-16T06:43:49;13.20;99.90
11093;DHT22;5600;50.864;6.102;2022-10-16T06:46:50;13.30;99.90
11093;DHT22;5600;50.864;6.102;2022-10-16T06:49:51;13.40;99.90
11093;DHT22;5600;50.864;6.102;2022-10-16T06:52:52;13.60;99.90
11093;DHT22;5600;50.864;6.102;2022-10-16T06:55:52;13.60;99.90
11093;DHT22;5600;50.864;6.102;2022-10-16T06:58:54;13.60;99.90
11093;DHT22;5600;50.864;6.102;2022-10-16T07:01:54;13.60;99.90
11093;DHT22;5600;50.864;6.102;2022-10-16T07:04:55;13.70;99.90
11093;DHT22;5600;50.864;6.102;2022-10-16T07:07:57;13.60;99.90
11093;DHT22;5600;50.864;6.102;2022-10-16T07:11:03;13.20;99.90
11093;DHT22;5600;50.864;6.102;2022-10-16T07:14:04;13.60;99.90
11093;DHT22;5600;50.864;6.102;2022-10-16T07:17:05;13.60;99.90
11093;DHT22;5600;50.864;6.102;2022-10-16T07:20:06;13.70;99.90
11093;DHT22;5600;50.864;6.102;2022-10-16T07:23:07;13.70;99.90
11093;DHT22;5600;50.864;6.102;2022-10-16T07:26:09;13.70;99.90
11093;DHT22;5600;50.864;6.102;2022-10-16T07:29:18;13.60;99.90
11093;DHT22;5600;50.864;6.102;2022-10-16T07:32:19;13.80;99.90
11093;DHT22;5600;50.864;6.102;2022-10-16T07:35:20;13.90;99.90
11093;DHT22;5600;50.864;6.102;2022-10-16T07:38:21;14.20;99.90
11093;DHT22;5600;50.864;6.102;2022-10-16T07:41:22;14.50;99.90
11093;DHT22;5600;50.864;6.102;2022-10-16T07:44:23;14.90;99.90
11093;DHT22;5600;50.864;6.102;2022-10-16T07:47:23;15.60;99.90
11093;DHT22;5600;50.864;6.102;2022-10-16T07:50:24;15.70;99.90
11093;DHT22;5600;50.864;6.102;2022-10-16T07:53:25;16.10;99.90
11093;DHT22;5600;50.864;6.102;2022-10-16T07:56:26;16.60;99.90
11093;DHT22;5600;50.864;6.102;2022-10-16T07:59:27;17.20;99.90
11093;DHT22;5600;50.864;6.102;2022-10-16T08:02:28;17.60;99.90
11093;DHT22;5600;50.864;6.102;2022-10-16T08:05:31;18.00;99.90
11093;DHT22;5600;50.864;6.102;2022-10-16T08:08:33;18.50;99.90
11093;DHT22;5600;50.864;6.102;2022-10-16T08:11:34;18.90;99.90
11093;DHT22;5600;50.864;6.102;2022-10-16T08:14:34;19.30;99.90
11093;DHT22;5600;50.864;6.102;2022-10-16T08:17:35;19.90;99.90
11093;DHT22;5600;50.864;6.102;2022-10-16T08:20:36;20.10;99.90
11093;DHT22;5600;50.864;6.102;2022-10-16T08:23:37;20.30;99.90
11093;DHT22;5600;50.864;6.102;2022-10-16T08:26:37;20.30;99.90
11093;DHT22;5600;50.864;6.102;2022-10-16T08:29:38;20.40;99.90
11093;DHT22;5600;50.864;6.102;2022-10-16T08:32:39;20.60;99.90
11093;DHT22;5600;50.864;6.102;2022-10-16T08:35:41;20.60;99.90
11093;DHT22;5600;50.864;6.102;2022-10-16T08:38:42;20.70;99.90
11093;DHT22;5600;50.864;6.102;2022-10-16T08:42:03;20.70;99.90
11093;DHT22;5600;50.864;6.102;2022-10-16T08:48:52;20.90;99.90
11093;DHT22;5600;50.864;6.102;2022-10-16T08:51:55;20.90;99.90
11093;DHT22;5600;50.864;6.102;2022-10-16T08:54:57;21.00;99.90
11093;DHT22;5600;50.864;6.102;2022-10-16T08:57:59;20.80;99.90
11093;DHT22;5600;50.864;6.102;2022-10-16T09:01:02;20.40;99.90
11093;DHT22;5600;50.864;6.102;2022-10-16T09:07:59;20.00;99.90
11093;DHT22;5600;50.864;6.102;2022-10-16T09:15:00;19.90;99.90
11093;DHT22;5600;50.864;6.102;2022-10-16T09:18:29;20.10;99.90
11093;DHT22;5600;50.864;6.102;2022-10-16T09:21:38;20.40;99.90
11093;DHT22;5600;50.864;6.102;2022-10-16T09:24:41;20.40;99.90
11093;DHT22;5600;50.864;6.102;2022-10-16T09:27:45;20.50;99.90
11093;DHT22;5600;50.864;6.102;2022-10-16T09:30:47;20.60;99.90
11093;DHT22;5600;50.864;6.102;2022-10-16T09:33:57;20.60;99.90
11093;DHT22;5600;50.864;6.102;2022-10-16T09:37:05;20.50;99.90
11093;DHT22;5600;50.864;6.102;2022-10-16T09:40:23;20.40;99.90
11093;DHT22;5600;50.864;6.102;2022-10-16T09:43:46;20.40;99.90
11093;DHT22;5600;50.864;6.102;2022-10-16T09:46:48;20.50;99.90
11093;DHT22;5600;50.864;6.102;2022-10-16T09:50:03;20.20;99.90
11093;DHT22;5600;50.864;6.102;2022-10-16T09:53:11;20.30;99.90
11093;DHT22;5600;50.864;6.102;2022-10-16T09:56:23;20.40;99.90
11093;DHT22;5600;50.864;6.102;2022-10-16T09:59:24;20.40;99.90
11093;DHT22;5600;50.864;6.102;2022-10-16T10:02:37;20.60;99.90
11093;DHT22;5600;50.864;6.102;2022-10-16T10:05:39;20.60;99.90
11093;DHT22;5600;50.864;6.102;2022-10-16T10:08:40;20.90;99.90
11093;DHT22;5600;50.864;6.102;2022-10-16T10:11:47;21.00;99.90
11093;DHT22;5600;50.864;6.102;2022-10-16T10:14:53;20.80;99.90
11093;DHT22;5600;50.864;6.102;2022-10-16T10:17:57;20.60;99.90
11093;DHT22;5600;50.864;6.102;2022-10-16T10:21:02;20.40;99.90
11093;DHT22;5600;50.864;6.102;2022-10-16T10:24:03;20.20;99.90
11093;DHT22;5600;50.864;6.102;2022-10-16T10:27:14;20.00;99.90
11093;DHT22;5600;50.864;6.102;2022-10-16T10:34:17;19.70;99.90
11093;DHT22;5600;50.864;6.102;2022-10-16T10:37:30;19.80;99.90
11093;DHT22;5600;50.864;6.102;2022-10-16T10:40:45;19.80;99.90
11093;DHT22;5600;50.864;6.102;2022-10-16T10:47:59;19.80;99.90
11093;DHT22;5600;50.864;6.102;2022-10-16T10:51:12;20.10;99.90
11093;DHT22;5600;50.864;6.102;2022-10-16T10:54:36;20.20;99.90
11093;DHT22;5600;50.864;6.102;2022-10-16T10:58:08;20.30;99.90
11093;DHT22;5600;50.864;6.102;2022-10-16T11:01:16;20.20;99.90
11093;DHT22;5600;50.864;6.102;2022-10-16T11:11:10;20.30;99.90
11093;DHT22;5600;50.864;6.102;2022-10-16T11:14:19;20.60;99.90
11093;DHT22;5600;50.864;6.102;2022-10-16T11:17:31;20.90;99.90
11093;DHT22;5600;50.864;6.102;2022-10-16T11:20:40;20.80;99.90
11093;DHT22;5600;50.864;6.102;2022-10-16T11:24:16;20.90;99.90
11093;DHT22;5600;50.864;6.102;2022-10-16T11:27:14;21.20;99.90
11093;DHT22;5600;50.864;6.102;2022-10-16T11:30:20;21.50;99.90
11093;DHT22;5600;50.864;6.102;2022-10-16T11:39:52;21.90;99.90
11093;DHT22;5600;50.864;6.102;2022-10-16T11:43:07;21.90;99.90
11093;DHT22;5600;50.864;6.102;2022-10-16T11:46:15;21.80;99.90
11093;DHT22;5600;50.864;6.102;2022-10-16T11:49:28;21.60;99.90
11093;DHT22;5600;50.864;6.102;2022-10-16T11:55:45;21.20;99.90
11093;DHT22;5600;50.864;6.102;2022-10-16T11:58:59;21.20;99.90
11093;DHT22;5600;50.864;6.102;2022-10-16T12:02:28;21.00;99.90
11093;DHT22;5600;50.864;6.102;2022-10-16T12:08:34;20.60;99.90
11093;DHT22;5600;50.864;6.102;2022-10-16T12:11:37;20.30;99.90
11093;DHT22;5600;50.864;6.102;2022-10-16T12:14:39;20.10;99.90
11093;DHT22;5600;50.864;6.102;2022-10-16T12:17:40;20.10;99.90
11093;DHT22;5600;50.864;6.102;2022-10-16T12:20:41;20.10;99.90
11093;DHT22;5600;50.864;6.102;2022-10-16T12:26:49;20.30;99.90
11093;DHT22;5600;50.864;6.102;2022-10-16T12:29:55;20.50;99.90
11093;DHT22;5600;50.864;6.102;2022-10-16T12:33:16;20.50;99.90
11093;DHT22;5600;50.864;6.102;2022-10-16T12:36:32;20.50;99.90
11093;DHT22;5600;50.864;6.102;2022-10-16T12:39:33;20.70;99.90
11093;DHT22;5600;50.864;6.102;2022-10-16T12:42:35;20.70;99.90
11093;DHT22;5600;50.864;6.102;2022-10-16T12:45:36;20.70;99.90
11093;DHT22;5600;50.864;6.102;2022-10-16T12:48:38;20.80;99.90
11093;DHT22;5600;50.864;6.102;2022-10-16T12:51:41;20.80;99.90
11093;DHT22;5600;50.864;6.102;2022-10-16T12:54:42;20.80;99.90
11093;DHT22;5600;50.864;6.102;2022-10-16T13:01:34;20.80;99.90
11093;DHT22;5600;50.864;6.102;2022-10-16T13:08:09;20.80;99.90
11093;DHT22;5600;50.864;6.102;2022-10-16T13:11:52;20.80;99.90
11093;DHT22;5600;50.864;6.102;2022-10-16T13:15:25;21.00;99.90
11093;DHT22;5600;50.864;6.102;2022-10-16T13:28:29;21.30;99.90
11093;DHT22;5600;50.864;6.102;2022-10-16T13:31:31;21.30;99.90
11093;DHT22;5600;50.864;6.102;2022-10-16T13:34:32;21.10;99.90
11093;DHT22;5600;50.864;6.102;2022-10-16T13:37:33;20.90;99.90
11093;DHT22;5600;50.864;6.102;2022-10-16T13:40:34;20.90;99.90
11093;DHT22;5600;50.864;6.102;2022-10-16T13:43:36;21.00;99.90
11093;DHT22;5600;50.864;6.102;2022-10-16T13:46:39;21.20;99.90
11093;DHT22;5600;50.864;6.102;2022-10-16T13:49:40;21.30;99.90
11093;DHT22;5600;50.864;6.102;2022-10-16T13:52:41;21.50;99.90
11093;DHT22;5600;50.864;6.102;2022-10-16T13:55:41;21.50;99.90
11093;DHT22;5600;50.864;6.102;2022-10-16T13:58:43;21.60;99.90
11093;DHT22;5600;50.864;6.102;2022-10-16T14:01:44;21.30;99.90
11093;DHT22;5600;50.864;6.102;2022-10-16T14:04:46;21.00;99.90
11093;DHT22;5600;50.864;6.102;2022-10-16T14:07:49;20.80;99.90
11093;DHT22;5600;50.864;6.102;2022-10-16T14:10:54;20.60;99.90
11093;DHT22;5600;50.864;6.102;2022-10-16T14:13:55;20.40;99.90
11093;DHT22;5600;50.864;6.102;2022-10-16T14:16:56;20.20;99.90
11093;DHT22;5600;50.864;6.102;2022-10-16T14:19:59;20.10;99.90
11093;DHT22;5600;50.864;6.102;2022-10-16T14:23:22;20.00;99.90
11093;DHT22;5600;50.864;6.102;2022-10-16T14:26:25;19.90;99.90
11093;DHT22;5600;50.864;6.102;2022-10-16T14:29:28;19.90;99.90
11093;DHT22;5600;50.864;6.102;2022-10-16T14:32:29;19.80;99.90
11093;DHT22;5600;50.864;6.102;2022-10-16T14:35:31;19.80;99.90
11093;DHT22;5600;50.864;6.102;2022-10-16T14:38:33;19.80;99.90
11093;DHT22;5600;50.864;6.102;2022-10-16T14:41:41;19.80;99.90
11093;DHT22;5600;50.864;6.102;2022-10-16T14:44:44;19.70;99.90
11093;DHT22;5600;50.864;6.102;2022-10-16T14:47:51;19.70;99.90
11093;DHT22;5600;50.864;6.102;2022-10-16T14:50:53;19.70;99.90
11093;DHT22;5600;50.864;6.102;2022-10-16T14:53:54;19.80;99.90
11093;DHT22;5600;50.864;6.102;2022-10-16T14:56:56;19.90;99.90
11093;DHT22;5600;50.864;6.102;2022-10-16T14:59:57;19.80;99.90
11093;DHT22;5600;50.864;6.102;2022-10-16T15:02:58;19.70;99.90
11093;DHT22;5600;50.864;6.102;2022-10-16T15:05:59;19.60;99.90
11093;DHT22;5600;50.864;6.102;2022-10-16T15:09:00;19.50;99.90
11093;DHT22;5600;50.864;6.102;2022-10-16T15:12:01;19.40;99.90
11093;DHT22;5600;50.864;6.102;2022-10-16T15:15:09;19.30;99.90
11093;DHT22;5600;50.864;6.102;2022-10-16T15:18:15;19.20;99.90
11093;DHT22;5600;50.864;6.102;2022-10-16T15:21:31;19.10;99.90
11093;DHT22;5600;50.864;6.102;2022-10-16T15:24:32;19.00;99.90
11093;DHT22;5600;50.864;6.102;2022-10-16T15:27:33;19.00;99.90
11093;DHT22;5600;50.864;6.102;2022-10-16T15:30:40;18.90;99.90
11093;DHT22;5600;50.864;6.102;2022-10-16T15:33:41;18.90;99.90
11093;DHT22;5600;50.864;6.102;2022-10-16T15:36:42;18.80;99.90
11093;DHT22;5600;50.864;6.102;2022-10-16T15:39:43;18.80;99.90
11093;DHT22;5600;50.864;6.102;2022-10-16T15:42:43;18.70;99.90
11093;DHT22;5600;50.864;6.102;2022-10-16T15:45:54;18.60;99.90
11093;DHT22;5600;50.864;6.102;2022-10-16T15:48:58;18.60;99.90
11093;DHT22;5600;50.864;6.102;2022-10-16T15:51:59;18.50;99.90
11093;DHT22;5600;50.864;6.102;2022-10-16T15:55:00;18.40;99.90
11093;DHT22;5600;50.864;6.102;2022-10-16T15:58:01;18.40;99.90
11093;DHT22;5600;50.864;6.102;2022-10-16T16:01:02;18.40;99.90
11093;DHT22;5600;50.864;6.102;2022-10-16T16:04:04;18.30;99.90
11093;DHT22;5600;50.864;6.102;2022-10-16T16:07:05;18.30;99.90
11093;DHT22;5600;50.864;6.102;2022-10-16T16:10:10;18.20;99.90
11093;DHT22;5600;50.864;6.102;2022-10-16T16:13:11;18.10;99.90
11093;DHT22;5600;50.864;6.102;2022-10-16T16:16:15;18.10;99.90
11093;DHT22;5600;50.864;6.102;2022-10-16T16:19:16;18.00;99.90
11093;DHT22;5600;50.864;6.102;2022-10-16T16:22:21;17.90;99.90
11093;DHT22;5600;50.864;6.102;2022-10-16T16:25:22;17.80;99.90
11093;DHT22;5600;50.864;6.102;2022-10-16T16:28:23;17.70;99.90
11093;DHT22;5600;50.864;6.102;2022-10-16T16:31:26;17.60;99.90
11093;DHT22;5600;50.864;6.102;2022-10-16T16:34:28;17.40;99.90
11093;DHT22;5600;50.864;6.102;2022-10-16T16:37:29;17.40;99.90
11093;DHT22;5600;50.864;6.102;2022-10-16T16:40:29;17.30;99.90
11093;DHT22;5600;50.864;6.102;2022-10-16T16:43:30;17.20;99.90
11093;DHT22;5600;50.864;6.102;2022-10-16T16:46:32;17.10;99.90
11093;DHT22;5600;50.864;6.102;2022-10-16T16:49:33;17.00;99.90
11093;DHT22;5600;50.864;6.102;2022-10-16T16:52:34;17.00;99.90
11093;DHT22;5600;50.864;6.102;2022-10-16T16:55:35;16.90;99.90
11093;DHT22;5600;50.864;6.102;2022-10-16T16:58:36;17.20;99.90
11093;DHT22;5600;50.864;6.102;2022-10-16T17:01:36;16.80;99.90
11093;DHT22;5600;50.864;6.102;2022-10-16T17:04:37;16.80;99.90
11093;DHT22;5600;50.864;6.102;2022-10-16T17:07:38;16.70;99.90
11093;DHT22;5600;50.864;6.102;2022-10-16T17:10:44;16.70;99.90
11093;DHT22;5600;50.864;6.102;2022-10-16T17:13:44;16.60;99.90
11093;DHT22;5600;50.864;6.102;2022-10-16T17:16:45;16.60;99.90
11093;DHT22;5600;50.864;6.102;2022-10-16T17:19:49;16.60;99.90
11093;DHT22;5600;50.864;6.102;2022-10-16T17:22:50;16.60;99.90
11093;DHT22;5600;50.864;6.102;2022-10-16T17:25:51;16.70;99.90
11093;DHT22;5600;50.864;6.102;2022-10-16T17:28:57;16.60;99.90
11093;DHT22;5600;50.864;6.102;2022-10-16T17:31:58;16.60;99.90
11093;DHT22;5600;50.864;6.102;2022-10-16T17:34:59;16.60;99.90
11093;DHT22;5600;50.864;6.102;2022-10-16T17:38:00;16.50;99.90
11093;DHT22;5600;50.864;6.102;2022-10-16T17:41:23;16.50;99.90
11093;DHT22;5600;50.864;6.102;2022-10-16T17:44:24;16.50;99.90
11093;DHT22;5600;50.864;6.102;2022-10-16T17:47:25;16.50;99.90
11093;DHT22;5600;50.864;6.102;2022-10-16T17:50:25;16.50;99.90
11093;DHT22;5600;50.864;6.102;2022-10-16T17:53:26;16.50;99.90
11093;DHT22;5600;50.864;6.102;2022-10-16T17:56:28;16.60;99.90
11093;DHT22;5600;50.864;6.102;2022-10-16T17:59:29;16.60;99.90
11093;DHT22;5600;50.864;6.102;2022-10-16T18:02:30;16.60;99.90
11093;DHT22;5600;50.864;6.102;2022-10-16T18:05:31;16.60;99.90
11093;DHT22;5600;50.864;6.102;2022-10-16T18:08:32;16.60;99.90
11093;DHT22;5600;50.864;6.102;2022-10-16T18:11:36;16.60;99.90
11093;DHT22;5600;50.864;6.102;2022-10-16T18:14:38;16.70;99.90
11093;DHT22;5600;50.864;6.102;2022-10-16T18:17:38;16.70;99.90
11093;DHT22;5600;50.864;6.102;2022-10-16T18:20:39;16.70;99.90
11093;DHT22;5600;50.864;6.102;2022-10-16T18:23:41;16.70;99.90
11093;DHT22;5600;50.864;6.102;2022-10-16T18:26:42;16.70;99.90
11093;DHT22;5600;50.864;6.102;2022-10-16T18:29:43;16.70;99.90
11093;DHT22;5600;50.864;6.102;2022-10-16T18:32:43;16.70;99.90
11093;DHT22;5600;50.864;6.102;2022-10-16T18:35:44;16.70;99.90
11093;DHT22;5600;50.864;6.102;2022-10-16T18:38:45;16.80;99.90
11093;DHT22;5600;50.864;6.102;2022-10-16T18:41:46;16.80;99.90
11093;DHT22;5600;50.864;6.102;2022-10-16T18:44:47;16.90;99.90
11093;DHT22;5600;50.864;6.102;2022-10-16T18:47:47;17.10;99.90
11093;DHT22;5600;50.864;6.102;2022-10-16T18:50:48;17.10;99.90
11093;DHT22;5600;50.864;6.102;2022-10-16T18:53:51;17.10;99.90
11093;DHT22;5600;50.864;6.102;2022-10-16T18:56:52;17.10;99.90
11093;DHT22;5600;50.864;6.102;2022-10-16T18:59:53;17.00;99.90
11093;DHT22;5600;50.864;6.102;2022-10-16T19:02:54;16.90;99.90
11093;DHT22;5600;50.864;6.102;2022-10-16T19:05:59;16.90;99.90
11093;DHT22;5600;50.864;6.102;2022-10-16T19:08:59;16.80;99.90
11093;DHT22;5600;50.864;6.102;2022-10-16T19:12:01;16.70;99.90
11093;DHT22;5600;50.864;6.102;2022-10-16T19:15:02;16.60;99.90
11093;DHT22;5600;50.864;6.102;2022-10-16T19:18:03;16.50;99.90
11093;DHT22;5600;50.864;6.102;2022-10-16T19:21:06;16.40;99.90
11093;DHT22;5600;50.864;6.102;2022-10-16T19:24:10;16.30;99.90
11093;DHT22;5600;50.864;6.102;2022-10-16T19:27:11;17.00;99.90
11093;DHT22;5600;50.864;6.102;2022-10-16T19:30:12;16.10;99.90
11093;DHT22;5600;50.864;6.102;2022-10-16T19:33:13;16.00;99.90
11093;DHT22;5600;50.864;6.102;2022-10-16T19:36:19;15.90;99.90
11093;DHT22;5600;50.864;6.102;2022-10-16T19:39:22;15.90;99.90
11093;DHT22;5600;50.864;6.102;2022-10-16T19:42:24;15.80;99.90
11093;DHT22;5600;50.864;6.102;2022-10-16T19:45:25;15.70;99.90
11093;DHT22;5600;50.864;6.102;2022-10-16T19:48:26;15.60;99.90
11093;DHT22;5600;50.864;6.102;2022-10-16T19:51:27;15.50;99.90
11093;DHT22;5600;50.864;6.102;2022-10-16T19:54:28;15.40;99.90
11093;DHT22;5600;50.864;6.102;2022-10-16T19:57:32;15.30;99.90
11093;DHT22;5600;50.864;6.102;2022-10-16T20:00:33;15.30;99.90
11093;DHT22;5600;50.864;6.102;2022-10-16T20:03:34;15.30;99.90
11093;DHT22;5600;50.864;6.102;2022-10-16T20:06:35;15.20;99.90
11093;DHT22;5600;50.864;6.102;2022-10-16T20:09:36;15.10;99.90
11093;DHT22;5600;50.864;6.102;2022-10-16T20:12:36;15.00;99.90
11093;DHT22;5600;50.864;6.102;2022-10-16T20:15:37;14.90;99.90
11093;DHT22;5600;50.864;6.102;2022-10-16T20:18:38;14.90;99.90
11093;DHT22;5600;50.864;6.102;2022-10-16T20:21:39;14.80;99.90
11093;DHT22;5600;50.864;6.102;2022-10-16T20:24:40;14.70;99.90
11093;DHT22;5600;50.864;6.102;2022-10-16T20:27:40;14.60;99.90
11093;DHT22;5600;50.864;6.102;2022-10-16T20:30:43;14.50;99.90
11093;DHT22;5600;50.864;6.102;2022-10-16T20:33:44;14.40;99.90
11093;DHT22;5600;50.864;6.102;2022-10-16T20:36:45;14.40;99.90
11093;DHT22;5600;50.864;6.102;2022-10-16T20:39:46;14.30;99.90
11093;DHT22;5600;50.864;6.102;2022-10-16T20:42:48;14.20;99.90
11093;DHT22;5600;50.864;6.102;2022-10-16T20:46:01;14.20;99.90